Time;durP1;ratioP1;P1;durP2;ratioP2;P2;SDS_P1;SDS_P2;PMS_P1;PMS_P2;Temp;Humidity;BMP_temperature;BMP_pressure;BME280_temperature;BME280_humidity;BME280_pressure;Samples;Min_cycle;Max_cycle;Signal;HPM_P1;HPM_P2
2022/07/19 00:01:24;;;;;;;7.80;3.40;;;;;;;21.94;52.94;98996.19;4914160;28;102692;-67
2022/07/19 00:03:53;;;;;;;4.43;3.43;;;;;;;21.65;53.20;98995.94;4914273;28;102899;-62
2022/07/19 00:06:21;;;;;;;4.15;3.20;;;;;;;21.24;54.09;99000.59;4928991;28;104153;-62
2022/07/19 00:08:50;;;;;;;5.25;2.95;;;;;;;21.26;54.61;98999.41;4915352;28;103203;-62
2022/07/19 00:11:18;;;;;;;4.20;2.90;;;;;;;21.57;53.83;99006.72;4915203;28;102637;-67
2022/07/19 00:13:46;;;;;;;4.63;3.28;;;;;;;21.14;54.17;99003.47;4913440;28;102670;-67
2022/07/19 00:16:15;;;;;;;5.50;3.60;;;;;;;20.69;56.08;99008.47;4915346;28;104060;-62
2022/07/19 00:18:44;;;;;;;4.72;3.70;;;;;;;20.42;58.05;99006.97;4919762;28;104477;-67
2022/07/19 00:21:12;;;;;;;5.88;4.20;;;;;;;20.27;59.46;98999.75;4920782;28;103080;-67
2022/07/19 00:23:40;;;;;;;5.30;4.10;;;;;;;20.36;60.10;98996.03;4922891;28;102757;-67
2022/07/19 00:26:11;;;;;;;5.78;4.45;;;;;;;20.65;59.38;98996.41;4923656;28;103069;-67
2022/07/19 00:28:39;;;;;;;5.35;4.30;;;;;;;21.14;58.13;98999.94;4922535;28;103249;-67
2022/07/19 00:31:07;;;;;;;4.75;3.50;;;;;;;21.53;57.32;99002.72;4920384;28;103793;-62
2022/07/19 00:33:35;;;;;;;6.03;4.60;;;;;;;21.16;58.46;99000.63;4922568;28;102971;-62
2022/07/19 00:36:04;;;;;;;7.53;4.35;;;;;;;21.17;58.87;98992.38;4921658;28;103264;-62
2022/07/19 00:38:34;;;;;;;6.77;4.73;;;;;;;20.97;59.37;98996.41;4923496;28;103236;-60
2022/07/19 00:41:02;;;;;;;5.33;4.83;;;;;;;21.19;59.16;98990.34;4921373;28;102962;-65
2022/07/19 00:43:32;;;;;;;6.87;4.70;;;;;;;21.26;58.95;98991.34;4922919;28;102893;-67
2022/07/19 00:46:00;;;;;;;3.67;3.20;;;;;;;21.73;56.85;98993.22;4921778;28;103311;-62
2022/07/19 00:48:28;;;;;;;5.00;3.47;;;;;;;21.88;56.33;98996.88;4920600;28;103290;-62
2022/07/19 00:50:56;;;;;;;3.67;3.30;;;;;;;21.89;55.97;98998.59;4921479;28;102963;-60
2022/07/19 00:53:25;;;;;;;6.28;5.00;;;;;;;21.42;57.85;98995.84;4922132;28;104153;-60
2022/07/19 00:55:55;;;;;;;5.63;5.00;;;;;;;21.42;58.52;98995.03;4922982;28;103405;-64
2022/07/19 00:58:24;;;;;;;5.93;5.10;;;;;;;21.37;59.38;98998.22;4917299;28;103411;-60
2022/07/19 01:00:53;;;;;;;5.90;4.43;;;;;;;21.30;59.45;98998.09;4920190;28;103453;-60
2022/07/19 01:03:22;;;;;;;4.70;4.20;;;;;;;21.37;59.08;98999.06;4916543;28;104242;-60
2022/07/19 01:05:50;;;;;;;5.22;4.32;;;;;;;21.52;58.78;98996.50;4919395;28;103267;-60
2022/07/19 01:08:18;;;;;;;5.95;4.45;;;;;;;21.58;58.28;99000.34;4920983;28;103209;-65
2022/07/19 01:10:47;;;;;;;3.75;3.45;;;;;;;21.65;57.50;99001.31;4918074;28;102646;-60
2022/07/19 01:13:17;;;;;;;4.53;3.30;;;;;;;21.74;57.04;98994.91;4920206;28;102796;-61
2022/07/19 01:15:45;;;;;;;4.53;4.13;;;;;;;21.68;57.29;98990.22;4919313;28;103261;-60
2022/07/19 01:18:14;;;;;;;5.23;4.43;;;;;;;21.49;58.46;98996.00;4921024;28;103188;-65
2022/07/19 01:20:43;;;;;;;3.87;3.50;;;;;;;21.57;57.97;98990.59;4919857;28;102981;-65
2022/07/19 01:23:12;;;;;;;4.57;3.42;;;;;;;21.66;57.79;98992.25;4917773;28;104405;-65
2022/07/19 01:25:40;;;;;;;3.57;3.27;;;;;;;21.67;57.59;98996.63;4921415;28;104112;-64
2022/07/19 01:28:08;;;;;;;5.63;4.13;;;;;;;21.50;58.04;99003.06;4919402;28;103252;-65
2022/07/19 01:30:39;;;;;;;5.70;3.57;;;;;;;21.58;57.80;98997.66;4916445;28;102872;-60
2022/07/19 01:33:08;;;;;;;3.47;3.20;;;;;;;21.62;57.34;99002.50;4918508;28;102951;-65
2022/07/19 01:35:36;;;;;;;5.65;4.03;;;;;;;21.52;57.77;98998.34;4917572;28;104375;-60
2022/07/19 01:38:07;;;;;;;5.03;4.15;;;;;;;20.96;60.09;98999.28;4915367;28;103232;-60
2022/07/19 01:40:36;;;;;;;6.55;4.38;;;;;;;20.84;60.46;98996.09;4920403;28;102639;-60
2022/07/19 01:43:04;;;;;;;6.57;4.70;;;;;;;20.39;62.50;98996.56;4914828;28;102827;-60
2022/07/19 01:45:32;;;;;;;9.20;4.60;;;;;;;19.73;65.01;98999.22;4915835;28;104643;-60
2022/07/19 01:48:01;;;;;;;5.43;4.78;;;;;;;19.46;66.62;99002.06;4915871;28;103307;-64
2022/07/19 01:50:29;;;;;;;7.77;5.17;;;;;;;19.86;65.07;98993.38;4916346;28;102900;-60
2022/07/19 01:52:57;;;;;;;3.67;3.38;;;;;;;20.54;62.13;99000.28;4917875;28;102973;-60
2022/07/19 01:55:25;;;;;;;3.58;3.28;;;;;;;20.89;60.43;98996.41;4916095;28;104090;-59
2022/07/19 01:57:54;;;;;;;5.93;4.03;;;;;;;20.91;60.58;98999.78;4918429;28;103319;-65
2022/07/19 02:00:22;;;;;;;6.15;4.30;;;;;;;20.74;61.69;98998.13;4916639;28;102656;-65
2022/07/19 02:02:50;;;;;;;4.80;3.85;;;;;;;20.75;61.17;98997.94;4909943;28;103159;-60
2022/07/19 02:05:18;;;;;;;7.30;4.50;;;;;;;20.87;60.79;98993.06;4917335;28;103353;-60
2022/07/19 02:07:47;;;;;;;5.20;3.58;;;;;;;20.98;59.44;98992.72;4916123;28;103285;-60
2022/07/19 02:10:16;;;;;;;3.97;3.55;;;;;;;20.93;59.75;98995.06;4916519;28;102610;-60
2022/07/19 02:12:44;;;;;;;4.80;3.97;;;;;;;20.82;60.80;98987.38;4914991;28;103213;-60
2022/07/19 02:15:13;;;;;;;6.10;4.20;;;;;;;20.48;62.22;99000.09;4917005;28;104313;-65
2022/07/19 02:17:41;;;;;;;8.27;5.20;;;;;;;20.04;63.80;98997.63;4917505;28;103603;-63
2022/07/19 02:20:13;;;;;;;6.57;4.90;;;;;;;19.65;65.75;98991.09;4914305;28;103110;-65
2022/07/19 02:22:41;;;;;;;7.50;4.97;;;;;;;19.39;66.84;98993.00;4916452;28;103277;-60
2022/07/19 02:25:10;;;;;;;7.70;5.10;;;;;;;19.84;64.82;98974.78;4913850;28;103398;-64
2022/07/19 02:27:38;;;;;;;4.88;4.15;;;;;;;20.15;64.06;98978.53;4916204;28;103323;-60
2022/07/19 02:30:06;;;;;;;6.60;4.50;;;;;;;20.35;62.74;98979.09;4915983;28;102939;-60
2022/07/19 02:32:38;;;;;;;3.50;3.20;;;;;;;20.49;61.63;98972.25;4918404;28;102667;-61
2022/07/19 02:35:08;;;;;;;3.63;3.33;;;;;;;20.55;61.48;98979.63;4914979;28;103513;-60
2022/07/19 02:37:38;;;;;;;4.10;3.70;;;;;;;20.57;61.41;98978.47;4915481;28;103057;-65
2022/07/19 02:40:08;;;;;;;4.25;3.60;;;;;;;20.54;61.22;98977.97;4915271;28;102746;-65
2022/07/19 02:42:36;;;;;;;4.95;4.45;;;;;;;20.37;62.60;98969.06;4915165;28;104557;-64
2022/07/19 02:45:05;;;;;;;7.03;4.60;;;;;;;20.34;63.08;98976.59;4912691;28;103342;-64
2022/07/19 02:47:33;;;;;;;7.13;4.83;;;;;;;20.17;63.51;98975.72;4913567;28;103116;-64
2022/07/19 02:50:05;;;;;;;7.05;5.10;;;;;;;19.36;67.07;98980.75;4914368;28;102702;-65
2022/07/19 02:52:33;;;;;;;6.28;4.82;;;;;;;19.58;66.38;98971.31;4917323;28;102777;-64
2022/07/19 02:55:01;;;;;;;7.55;4.93;;;;;;;19.58;66.24;98974.00;4915198;28;103471;-60
2022/07/19 02:57:29;;;;;;;5.20;4.70;;;;;;;19.84;65.21;98976.63;4914211;28;104434;-60
2022/07/19 02:59:57;;;;;;;4.40;4.00;;;;;;;19.94;64.63;98975.47;4916519;28;102692;-60
2022/07/19 03:02:25;;;;;;;5.63;4.68;;;;;;;19.58;65.65;98974.00;4915175;28;102732;-59
2022/07/19 03:04:53;;;;;;;4.23;3.73;;;;;;;19.92;63.86;98977.50;4917341;28;103251;-64
2022/07/19 03:07:22;;;;;;;3.80;3.50;;;;;;;20.04;64.09;98973.47;4913319;28;103316;-60
2022/07/19 03:09:50;;;;;;;6.25;4.68;;;;;;;20.09;64.32;98968.50;4912940;28;102678;-65
2022/07/19 03:12:18;;;;;;;4.38;3.97;;;;;;;20.08;64.06;98969.47;4914609;28;104112;-59
2022/07/19 03:14:47;;;;;;;3.63;3.25;;;;;;;20.14;63.23;98965.31;4914814;28;103327;-60
2022/07/19 03:17:15;;;;;;;4.68;4.07;;;;;;;20.10;63.68;98964.78;4914148;28;103240;-65
2022/07/19 03:19:42;;;;;;;5.90;4.85;;;;;;;19.83;64.07;98961.53;4915265;28;102694;-65
2022/07/19 03:22:10;;;;;;;7.68;5.18;;;;;;;19.07;67.32;98969.50;4914549;28;103207;-64
2022/07/19 03:24:42;;;;;;;11.70;5.93;;;;;;;18.67;69.26;98971.88;4913473;28;103337;-59
2022/07/19 03:27:10;;;;;;;9.87;6.53;;;;;;;18.07;72.11;98962.81;4910708;28;103379;-59
2022/07/19 03:29:38;;;;;;;9.82;6.45;;;;;;;18.03;72.76;98974.78;4915319;28;102617;-59
2022/07/19 03:32:06;;;;;;;6.60;5.70;;;;;;;18.34;71.54;98966.25;4914567;28;103060;-60
2022/07/19 03:34:34;;;;;;;6.22;5.13;;;;;;;18.99;68.78;98967.63;4912938;28;103170;-64
2022/07/19 03:37:02;;;;;;;8.75;5.95;;;;;;;18.94;68.96;98967.28;4900772;28;103329;-59
2022/07/19 03:39:30;;;;;;;6.07;5.00;;;;;;;19.08;68.42;98971.22;4912575;28;103921;-59
2022/07/19 03:41:59;;;;;;;9.02;5.55;;;;;;;19.04;68.05;98972.50;4906347;28;104562;-61
2022/07/19 03:44:27;;;;;;;5.80;5.30;;;;;;;19.14;67.64;98969.72;4907111;28;103421;-64
2022/07/19 03:46:55;;;;;;;6.18;5.57;;;;;;;18.77;69.49;98973.50;4911304;28;103389;-64
2022/07/19 03:49:23;;;;;;;6.22;5.53;;;;;;;18.79;69.38;98974.19;4912852;28;104160;-65
2022/07/19 03:51:53;;;;;;;8.07;5.90;;;;;;;18.02;72.74;98983.81;4910284;28;104047;-59
2022/07/19 03:54:21;;;;;;;4.45;4.05;;;;;;;18.87;69.02;98979.59;4912813;28;104085;-64
2022/07/19 03:56:49;;;;;;;3.65;3.35;;;;;;;19.34;65.76;98981.91;4915102;28;103534;-63
2022/07/19 03:59:19;;;;;;;4.10;3.70;;;;;;;19.38;66.64;98976.09;4926889;28;102695;-64
2022/07/19 04:01:47;;;;;;;6.43;5.37;;;;;;;19.38;67.25;98978.78;4911842;28;102971;-64
2022/07/19 04:04:18;;;;;;;6.15;4.82;;;;;;;19.25;68.10;98980.19;4906386;28;103788;-64
2022/07/19 04:06:46;;;;;;;7.07;5.25;;;;;;;19.29;67.65;98977.00;4904595;28;103212;-59
2022/07/19 04:09:14;;;;;;;5.78;4.78;;;;;;;19.40;68.06;98981.28;4907995;28;102804;-59
2022/07/19 04:11:42;;;;;;;6.63;4.80;;;;;;;19.40;67.90;98970.56;4905149;28;102830;-59
2022/07/19 04:14:12;;;;;;;6.97;5.13;;;;;;;19.35;68.02;98978.22;4909796;28;103530;-59
2022/07/19 04:16:41;;;;;;;7.47;5.22;;;;;;;19.47;67.27;98982.34;4906572;28;103232;-64
2022/07/19 04:19:09;;;;;;;6.95;4.90;;;;;;;19.48;67.54;98981.34;4944960;28;102864;-64
2022/07/19 04:21:37;;;;;;;7.88;5.78;;;;;;;18.89;70.05;98988.28;4907768;28;102885;-64
2022/07/19 04:24:05;;;;;;;8.90;5.60;;;;;;;18.47;71.69;98992.59;4907111;28;105068;-69
2022/07/19 04:26:38;;;;;;;8.48;5.60;;;;;;;18.56;73.63;98990.84;4910943;28;103513;-63
2022/07/19 04:29:06;;;;;;;15.95;7.68;;;;;;;18.93;74.28;98991.50;4913529;28;102652;-58
2022/07/19 04:31:33;;;;;;;9.20;5.72;;;;;;;19.10;72.08;98990.63;4906460;28;103048;-58
2022/07/19 04:34:04;;;;;;;5.93;4.50;;;;;;;19.38;71.52;98993.97;4911998;28;103552;-62
2022/07/19 04:36:31;;;;;;;3.93;3.63;;;;;;;19.72;68.51;98997.53;4909907;28;103224;-62
2022/07/19 04:39:00;;;;;;;7.05;4.53;;;;;;;19.87;68.35;99001.28;4907646;28;103037;-59
2022/07/19 04:41:28;;;;;;;4.70;4.20;;;;;;;19.90;67.67;98995.56;4908325;28;102754;-59
2022/07/19 04:43:56;;;;;;;6.23;4.60;;;;;;;19.72;68.92;99002.88;4906544;28;103300;-63
2022/07/19 04:46:24;;;;;;;6.10;4.50;;;;;;;19.96;67.88;99000.28;4910777;28;104541;-58
2022/07/19 04:48:52;;;;;;;3.78;3.47;;;;;;;20.13;66.71;99001.16;4912185;28;102817;-59
2022/07/19 04:51:21;;;;;;;4.57;4.18;;;;;;;20.23;67.18;98994.66;4906582;28;104551;-62
2022/07/19 04:53:49;;;;;;;5.95;4.30;;;;;;;20.34;66.71;98995.38;4908158;28;103252;-59
2022/07/19 04:56:17;;;;;;;6.38;4.80;;;;;;;20.33;66.60;98994.53;4907534;28;103234;-63
2022/07/19 04:58:45;;;;;;;5.07;4.60;;;;;;;20.34;66.63;98992.69;4924201;28;102849;-59
2022/07/19 05:01:13;;;;;;;4.37;3.97;;;;;;;20.45;66.73;98992.38;4910227;28;103117;-58
2022/07/19 05:03:41;;;;;;;7.32;5.07;;;;;;;20.52;67.30;98988.84;4907298;28;103394;-59
2022/07/19 05:06:09;;;;;;;7.95;5.57;;;;;;;20.49;66.38;98991.06;4908925;28;103216;-63
2022/07/19 05:08:39;;;;;;;4.70;4.20;;;;;;;20.71;66.32;98993.91;4941812;28;102890;-59
2022/07/19 05:11:08;;;;;;;6.25;4.95;;;;;;;20.81;67.03;98991.03;4913284;28;102931;-59
2022/07/19 05:13:36;;;;;;;6.13;4.70;;;;;;;20.86;66.12;98993.22;4912847;28;103329;-61
2022/07/19 05:16:05;;;;;;;7.38;5.47;;;;;;;20.87;66.00;98990.38;4912738;28;103204;-59
2022/07/19 05:18:35;;;;;;;6.20;4.03;;;;;;;21.03;65.04;98990.34;4916390;28;102726;-59
2022/07/19 05:21:03;;;;;;;5.15;4.65;;;;;;;21.15;65.48;98996.25;4915350;28;102969;-59
2022/07/19 05:23:31;;;;;;;8.35;5.75;;;;;;;21.00;64.42;98990.69;4927101;28;104153;-63
2022/07/19 05:26:00;;;;;;;4.93;4.43;;;;;;;21.19;64.38;98992.22;4937650;28;103196;-59
2022/07/19 05:28:28;;;;;;;12.23;6.30;;;;;;;20.96;64.14;98985.84;4909330;28;102768;-60
2022/07/19 05:31:03;;;;;;;6.85;5.68;;;;;;;20.65;65.67;98996.41;4913735;28;102715;-63
2022/07/19 05:33:31;;;;;;;7.50;6.03;;;;;;;20.89;64.39;98990.19;4913743;28;103068;-63
2022/07/19 05:35:59;;;;;;;9.93;6.28;;;;;;;21.00;64.51;98988.00;4904233;28;103213;-63
2022/07/19 05:38:29;;;;;;;8.67;5.90;;;;;;;20.83;65.17;98989.03;4917222;28;102693;-63
2022/07/19 05:40:57;;;;;;;8.30;5.78;;;;;;;20.85;65.05;98984.34;4907446;28;102784;-59
2022/07/19 05:43:26;;;;;;;7.47;5.60;;;;;;;21.32;63.30;98996.06;4916514;28;103412;-59
2022/07/19 05:45:54;;;;;;;7.00;5.20;;;;;;;21.69;63.56;98986.53;4910723;28;103189;-59
2022/07/19 05:48:22;;;;;;;8.88;5.20;;;;;;;21.43;64.04;98988.63;4909641;28;103052;-59
2022/07/19 05:50:49;;;;;;;4.63;3.92;;;;;;;21.93;63.00;98994.50;4911980;28;102695;-59
2022/07/19 05:53:18;;;;;;;9.93;6.03;;;;;;;21.52;62.37;98990.28;4912963;28;103425;-58
2022/07/19 05:55:47;;;;;;;5.35;4.30;;;;;;;22.03;61.23;98984.38;4914751;28;103227;-65
2022/07/19 05:58:17;;;;;;;7.43;5.45;;;;;;;22.02;61.13;98980.00;4910308;28;102990;-65
2022/07/19 06:03:29;;;;;;;8.88;5.50;;;;;;;22.24;61.12;98976.50;4911764;28;104201;-59
2022/07/19 06:05:57;;;;;;;9.03;5.03;;;;;;;22.48;60.31;98981.72;4918209;28;103198;-60
2022/07/19 06:08:25;;;;;;;6.15;5.00;;;;;;;22.69;59.45;98985.63;4915047;28;102924;-59
2022/07/19 06:10:53;;;;;;;4.50;4.10;;;;;;;22.98;59.73;98983.03;4910524;28;102738;-64
2022/07/19 06:13:23;;;;;;;6.63;4.38;;;;;;;23.12;59.47;98976.84;4911243;28;104719;-64
2022/07/19 06:15:53;;;;;;;6.20;5.10;;;;;;;23.13;58.92;98975.00;4940216;28;103116;-64
2022/07/19 06:18:21;;;;;;;5.05;4.55;;;;;;;23.27;59.55;98983.06;4911883;28;103023;-65
2022/07/19 06:20:49;;;;;;;6.88;4.80;;;;;;;23.25;58.08;98976.19;4910602;28;102831;-65
2022/07/19 06:23:17;;;;;;;9.87;5.33;;;;;;;23.27;57.32;98980.38;4914922;28;103295;-65
2022/07/19 06:25:47;;;;;;;9.73;5.80;;;;;;;23.03;57.95;98972.53;4913983;28;103342;-65
2022/07/19 06:28:15;;;;;;;6.22;4.32;;;;;;;23.48;58.18;98977.81;4916229;28;102664;-65
2022/07/19 06:30:43;;;;;;;12.60;6.03;;;;;;;23.66;57.55;98974.75;4910899;28;103047;-61
2022/07/19 06:33:12;;;;;;;8.00;5.47;;;;;;;23.65;56.50;98978.47;4913013;28;103340;-61
2022/07/19 06:35:40;;;;;;;7.20;4.45;;;;;;;24.07;56.06;98980.44;4914633;28;103733;-61
2022/07/19 06:38:09;;;;;;;7.53;5.00;;;;;;;24.10;55.88;98980.94;4913733;28;103019;-58
2022/07/19 06:40:37;;;;;;;10.70;5.60;;;;;;;23.96;55.84;98981.78;4912640;28;103961;-61
2022/07/19 06:43:07;;;;;;;9.30;4.93;;;;;;;24.04;53.62;98978.13;4905881;28;103060;-58
2022/07/19 06:45:35;;;;;;;10.15;5.20;;;;;;;23.93;54.87;98981.31;4912914;28;103233;-58
2022/07/19 06:48:03;;;;;;;5.30;4.10;;;;;;;24.38;52.80;98972.94;4911967;28;103121;-58
2022/07/19 06:50:33;;;;;;;8.63;4.70;;;;;;;24.37;52.65;98971.25;4912399;28;103758;-58
2022/07/19 06:53:11;;;;;;;7.17;4.50;;;;;;;24.79;51.72;98970.41;4911074;28;104064;-61
2022/07/19 06:55:39;;;;;;;7.38;3.75;;;;;;;25.01;49.60;98965.88;4914122;28;103228;-58
2022/07/19 06:58:10;;;;;;;8.15;4.63;;;;;;;24.99;50.54;98963.34;4912586;28;102666;-58
2022/07/19 07:00:38;;;;;;;9.50;4.18;;;;;;;25.06;48.88;98963.41;4913780;28;103645;-61
2022/07/19 07:03:06;;;;;;;5.90;3.63;;;;;;;25.30;49.00;98960.25;4914386;28;103292;-58
2022/07/19 07:05:36;;;;;;;5.43;3.47;;;;;;;25.52;48.92;98971.84;4916102;28;104539;-61
2022/07/19 07:08:05;;;;;;;7.93;3.67;;;;;;;25.60;45.96;98960.88;4929916;28;104598;-58
2022/07/19 07:10:33;;;;;;;5.05;3.30;;;;;;;25.78;46.57;98962.00;4917897;28;103930;-61
2022/07/19 07:13:02;;;;;;;4.10;2.60;;;;;;;26.05;46.06;98965.63;4916958;28;103397;-61
2022/07/19 07:15:31;;;;;;;4.30;2.80;;;;;;;26.22;46.62;98952.59;4918446;28;103233;-61
2022/07/19 07:17:59;;;;;;;6.15;3.60;;;;;;;26.15;47.66;98955.31;4916353;28;102898;-62
2022/07/19 07:20:28;;;;;;;6.80;3.15;;;;;;;26.44;45.04;98957.66;4918661;28;102992;-61
2022/07/19 07:22:58;;;;;;;2.90;2.67;;;;;;;26.73;45.52;98952.88;4915873;28;103393;-62
2022/07/19 07:25:25;;;;;;;5.65;3.28;;;;;;;26.33;46.01;98960.16;4907281;28;103247;-61
2022/07/19 07:27:53;;;;;;;5.57;3.20;;;;;;;26.51;43.46;98965.81;4912306;28;104226;-62
2022/07/19 07:30:23;;;;;;;6.93;3.40;;;;;;;27.01;44.07;98956.25;4916785;28;103066;-62
2022/07/19 07:32:51;;;;;;;4.13;2.78;;;;;;;27.26;43.59;98948.31;4916035;28;103318;-58
2022/07/19 07:35:22;;;;;;;4.32;2.47;;;;;;;27.52;42.68;98940.16;4908353;28;103257;-61
2022/07/19 07:37:50;;;;;;;4.00;2.67;;;;;;;27.59;42.42;98940.97;4917155;28;102964;-61
2022/07/19 07:40:20;;;;;;;5.38;2.58;;;;;;;27.65;41.29;98948.25;4917056;28;103915;-62
2022/07/19 07:42:48;;;;;;;4.20;2.47;;;;;;;28.13;41.36;98946.81;4916831;28;103331;-61
2022/07/19 07:45:16;;;;;;;3.57;2.43;;;;;;;28.37;40.65;98947.09;4915828;28;103298;-61
2022/07/19 07:47:44;;;;;;;5.90;2.90;;;;;;;28.21;40.97;98942.19;4914873;28;103165;-62
2022/07/19 07:50:12;;;;;;;2.33;1.85;;;;;;;29.02;41.06;98941.22;4910473;28;103662;-59
2022/07/19 07:52:40;;;;;;;4.60;2.50;;;;;;;28.58;40.55;98938.59;4915463;28;103250;-62
2022/07/19 07:55:11;;;;;;;4.55;2.70;;;;;;;28.96;39.37;98938.53;4918507;28;103099;-59
2022/07/19 07:57:57;;;;;;;4.45;2.50;;;;;;;29.55;39.64;98940.69;4916201;28;102853;-59
2022/07/19 08:00:28;;;;;;;3.63;2.17;;;;;;;30.00;38.48;98936.63;4917273;28;103798;-59
2022/07/19 08:02:56;;;;;;;3.08;2.22;;;;;;;30.43;38.11;98929.09;4914403;28;104107;-59
2022/07/19 08:05:24;;;;;;;3.67;2.50;;;;;;;30.69;38.63;98932.50;4915694;28;103280;-62
2022/07/19 08:07:55;;;;;;;4.40;2.15;;;;;;;30.84;36.77;98930.16;4914791;28;103028;-62
2022/07/19 08:10:24;;;;;;;4.37;2.60;;;;;;;30.47;37.03;98928.66;4913549;28;104025;-62
2022/07/19 08:12:52;;;;;;;6.50;2.45;;;;;;;31.25;37.71;98932.81;4915658;28;103309;-61
2022/07/19 08:15:22;;;;;;;3.80;2.30;;;;;;;31.69;36.12;98927.81;4944137;28;103238;-62
2022/07/19 08:17:50;;;;;;;4.93;2.50;;;;;;;31.52;36.26;98925.81;4913987;28;102960;-60
2022/07/19 08:20:18;;;;;;;3.97;2.30;;;;;;;31.89;35.50;98920.84;4915201;28;102722;-60
2022/07/19 08:22:46;;;;;;;4.40;2.60;;;;;;;32.30;34.07;98914.31;4916868;28;104087;-59
2022/07/19 08:25:16;;;;;;;3.00;2.20;;;;;;;33.11;34.52;98916.56;4913977;28;103206;-62
2022/07/19 08:27:44;;;;;;;2.40;2.15;;;;;;;33.26;33.74;98914.03;4913341;28;102837;-62
2022/07/19 08:30:13;;;;;;;4.57;2.65;;;;;;;33.48;33.40;98914.09;4913684;28;103132;-59
2022/07/19 08:32:43;;;;;;;4.35;2.30;;;;;;;33.98;33.84;98911.19;4914700;28;103315;-59
2022/07/19 08:35:11;;;;;;;4.73;2.60;;;;;;;33.55;32.42;98911.97;4913278;28;103234;-62
2022/07/19 08:37:39;;;;;;;5.53;2.10;;;;;;;33.91;30.97;98902.31;4912093;28;102758;-60
2022/07/19 08:40:08;;;;;;;3.58;2.08;;;;;;;34.57;33.20;98903.91;4917418;28;102905;-59
2022/07/19 08:42:37;;;;;;;3.65;2.20;;;;;;;34.77;31.91;98909.59;4914979;28;103339;-60
2022/07/19 08:45:08;;;;;;;4.80;2.60;;;;;;;34.77;31.84;98897.78;4945598;28;103227;-63
2022/07/19 08:47:37;;;;;;;4.83;2.13;;;;;;;35.15;30.54;98904.94;4916009;28;102787;-62
2022/07/19 08:50:11;;;;;;;4.80;1.90;;;;;;;35.44;30.42;98895.25;4918385;28;102795;-60
2022/07/19 08:52:39;;;;;;;2.67;2.00;;;;;;;35.68;29.22;98899.22;4915822;28;104065;-62
2022/07/19 08:55:09;;;;;;;3.10;2.10;;;;;;;35.95;29.75;98894.41;4914699;28;103233;-62
2022/07/19 09:00:23;;;;;;;3.95;2.17;;;;;;;35.54;30.52;98903.50;4914414;28;104210;-62
2022/07/19 09:02:53;;;;;;;4.97;2.53;;;;;;;35.37;30.60;98894.66;4917048;28;103285;-62
2022/07/19 09:05:23;;;;;;;5.07;2.20;;;;;;;35.81;29.91;98893.25;4915050;28;104435;-62
2022/07/19 09:08:02;;;;;;;2.60;2.00;;;;;;;36.30;26.69;98890.09;4918667;28;103252;-60
2022/07/19 09:10:31;;;;;;;3.25;1.90;;;;;;;35.90;27.52;98905.34;4919171;28;104135;-60
2022/07/19 09:13:04;;;;;;;10.20;2.00;;;;;;;35.55;26.21;98898.84;4919129;28;103052;-60
2022/07/19 09:15:47;;;;;;;2.90;2.07;;;;;;;35.81;25.60;98908.91;4916721;28;103097;-62
2022/07/19 09:18:18;;;;;;;4.97;1.90;;;;;;;36.06;25.89;98903.53;4917747;28;102946;-60
2022/07/19 09:20:49;;;;;;;6.07;1.95;;;;;;;36.88;24.64;98897.88;4922961;28;102805;-60
2022/07/19 09:23:21;;;;;;;3.83;2.08;;;;;;;35.94;25.29;98897.41;4919109;28;103318;-62
2022/07/19 09:25:51;;;;;;;4.95;1.98;;;;;;;36.47;23.75;98896.16;4918588;28;103705;-62
2022/07/19 09:28:21;;;;;;;3.07;1.90;;;;;;;36.42;24.51;98887.91;4919131;28;102913;-62
2022/07/19 09:30:50;;;;;;;3.00;1.80;;;;;;;36.16;25.35;98878.78;4915659;28;103044;-62
2022/07/19 09:33:20;;;;;;;3.63;2.10;;;;;;;36.51;24.57;98878.06;4916694;28;103556;-60
2022/07/19 09:35:51;;;;;;;3.40;1.88;;;;;;;36.61;24.85;98880.81;4918470;28;103216;-60
2022/07/19 09:38:24;;;;;;;2.35;1.90;;;;;;;36.47;25.85;98880.50;4917049;28;103132;-61
2022/07/19 09:40:54;;;;;;;2.58;1.95;;;;;;;37.30;26.17;98882.97;4915941;28;103035;-60
2022/07/19 09:43:25;;;;;;;3.88;2.05;;;;;;;36.90;25.71;98889.34;4918054;28;103041;-60
2022/07/19 09:46:28;;;;;;;4.20;2.08;;;;;;;36.62;25.87;98874.22;4915682;28;103211;-60
2022/07/19 09:49:04;;;;;;;3.00;2.20;;;;;;;36.36;25.50;98872.50;4918373;28;102790;-63
2022/07/19 09:51:35;;;;;;;2.53;2.10;;;;;;;36.68;25.41;98872.28;4918990;28;102745;-63
2022/07/19 09:54:04;;;;;;;3.95;2.20;;;;;;;36.29;25.66;98878.28;4917065;28;103589;-63
2022/07/19 09:56:33;;;;;;;3.72;2.00;;;;;;;36.35;25.68;98871.66;4919913;28;103177;-63
2022/07/19 09:59:01;;;;;;;5.03;2.05;;;;;;;36.84;26.45;98872.00;4918521;28;103947;-60
2022/07/19 10:01:30;;;;;;;2.40;1.98;;;;;;;36.83;26.18;98870.34;4917527;28;102827;-60
2022/07/19 10:04:03;;;;;;;3.20;2.63;;;;;;;36.86;25.83;98872.53;4917239;28;103980;-61
2022/07/19 10:06:33;;;;;;;3.88;2.60;;;;;;;36.49;23.88;98871.97;4919191;28;103210;-63
2022/07/19 10:09:03;;;;;;;4.28;2.30;;;;;;;36.14;24.33;98880.16;4918695;28;102723;-60
2022/07/19 10:11:32;;;;;;;3.22;2.05;;;;;;;37.14;24.50;98862.88;4920509;28;102660;-60
2022/07/19 10:14:01;;;;;;;4.28;2.35;;;;;;;37.13;23.36;98867.59;4918004;28;103260;-63
2022/07/19 10:16:43;;;;;;;3.85;2.30;;;;;;;36.07;25.51;98868.63;4919979;28;103365;-63
2022/07/19 10:19:18;;;;;;;3.13;2.40;;;;;;;36.44;24.97;98863.69;4916008;28;102736;-63
2022/07/19 10:21:47;;;;;;;3.70;2.40;;;;;;;36.55;24.00;98860.72;4933183;28;102749;-63
2022/07/19 10:24:43;;;;;;;6.15;2.53;;;;;;;36.47;23.61;98858.47;4917762;28;103279;-63
2022/07/19 10:27:11;;;;;;;5.22;2.50;;;;;;;36.13;25.00;98851.03;4919583;28;103233;-62
2022/07/19 10:29:39;;;;;;;2.60;2.28;;;;;;;36.22;25.11;98843.88;4919184;28;102758;-63
2022/07/19 10:32:09;;;;;;;5.75;2.53;;;;;;;36.46;24.91;98845.03;4919291;28;102806;-63
2022/07/19 10:34:38;;;;;;;2.72;2.38;;;;;;;36.89;24.00;98844.47;4918486;28;103341;-63
2022/07/19 10:37:06;;;;;;;5.10;2.35;;;;;;;37.02;24.61;98852.19;4917484;28;103194;-63
2022/07/19 10:39:38;;;;;;;4.22;2.60;;;;;;;37.03;24.30;98836.47;4920249;28;103000;-63
2022/07/19 10:42:13;;;;;;;2.88;2.33;;;;;;;36.71;23.66;98836.78;4918554;28;102733;-63
2022/07/19 10:45:11;;;;;;;4.50;2.80;;;;;;;36.96;23.63;98839.53;4919215;28;103252;-61
2022/07/19 10:48:13;;;;;;;3.05;2.13;;;;;;;36.31;24.24;98839.50;4919569;28;103220;-60
2022/07/19 10:50:56;;;;;;;3.55;2.70;;;;;;;36.92;22.56;98837.56;4906775;28;102932;-63
2022/07/19 10:53:59;;;;;;;3.67;2.38;;;;;;;36.30;24.94;98829.59;4918139;28;102841;-63
2022/07/19 10:56:55;;;;;;;2.60;2.40;;;;;;;36.60;23.82;98830.47;4928375;28;104707;-64
2022/07/19 10:59:33;;;;;;;2.78;2.45;;;;;;;36.42;23.99;98821.91;4914938;28;103062;-60
2022/07/19 11:02:02;;;;;;;2.72;2.33;;;;;;;36.99;23.74;98825.22;4915650;28;102749;-63
2022/07/19 11:04:50;;;;;;;3.47;2.70;;;;;;;37.35;22.89;98812.16;4917377;28;103050;-61
2022/07/19 11:07:22;;;;;;;4.55;3.00;;;;;;;37.94;23.78;98814.13;4917150;28;104248;-60
2022/07/19 11:09:54;;;;;;;4.05;2.35;;;;;;;38.20;22.51;98810.09;4914415;28;103211;-63
2022/07/19 11:12:35;;;;;;;5.38;2.85;;;;;;;37.95;22.32;98807.50;4914252;28;102801;-63
2022/07/19 11:15:10;;;;;;;4.45;2.35;;;;;;;38.26;23.62;98798.72;4914567;28;102779;-64
2022/07/19 11:17:58;;;;;;;5.05;2.58;;;;;;;38.13;22.66;98795.78;4913503;28;103235;-63
2022/07/19 11:20:27;;;;;;;4.55;2.90;;;;;;;37.76;22.38;98798.22;4916628;28;103165;-63
2022/07/19 11:22:57;;;;;;;5.25;2.50;;;;;;;38.50;22.68;98792.47;4912553;28;102883;-63
2022/07/19 11:25:28;;;;;;;3.65;2.50;;;;;;;38.35;22.51;98785.16;4915600;28;103014;-63
2022/07/19 11:27:59;;;;;;;4.00;2.60;;;;;;;38.06;23.10;98787.03;4915146;28;103303;-63
2022/07/19 11:30:29;;;;;;;4.70;2.53;;;;;;;38.00;21.86;98780.72;4912898;28;103208;-63
2022/07/19 11:32:58;;;;;;;4.57;2.90;;;;;;;38.12;22.71;98786.69;4916575;28;102817;-61
2022/07/19 11:35:28;;;;;;;8.13;2.90;;;;;;;38.11;23.00;98787.81;4918702;28;102924;-61
2022/07/19 11:37:58;;;;;;;4.10;2.50;;;;;;;38.59;22.16;98782.47;4917788;28;103991;-60
2022/07/19 11:40:33;;;;;;;3.80;2.40;;;;;;;38.82;21.94;98773.44;4915698;28;103214;-61
2022/07/19 11:43:06;;;;;;;6.57;3.00;;;;;;;38.27;22.47;98772.78;4915971;28;103014;-61